Weather History for Atka, AK

Change the Weather History Date:

Wednesday, February 6, 2013

  Actual Average (PADK) Record (PADK)
Temperature  
Mean Temperature 38 °F -  
Max Temperature 41 °F 36 °F 46 °F (1985)
Min Temperature 35 °F 29 °F 12 °F (1998)
Degree Days  
Heating Degree Days 27    
Moisture  
Dew Point 32 °F    
Average Humidity 79    
Maximum Humidity 93    
Minimum Humidity 70    
Precipitation  
Precipitation 0.00 in - - ()
Sea Level Pressure  
Sea Level Pressure 28.92 in    
Wind  
Wind Speed 21 mph (SSE)    
Max Wind Speed 34 mph    
Max Gust Speed 44 mph    
Visibility 9 miles    
Events      
Averages and records for this station are not official NWS values.
T = Trace of Precipitation, MM = Missing Value Source: NWS Daily Summary

Daily Weather History Graph

Daily Weather History Graph

Search for Another Location

Airport:

Trip Planner

Search our weather history database for the weather conditions in past years. The results will help you decide how hot, cold, wet, or windy it might be!

Date:

Astronomy

Feb. 06, 2013 Rise Set
Actual Time 9:08 AM HAST 6:34 PM HAST
Civil Twilight 8:31 AM HAST 7:10 PM HAST
Nautical Twilight 7:51 AM HAST 7:51 PM HAST
Astronomical Twilight 7:12 AM HAST 8:30 PM HAST
Moon 6:20 AM HAST (2/6) 2:53 PM HAST (2/6)
Length of Visible Light 10h 38m
Length of Day
9h 26m
Waning Crescent, 15% of the Moon is Illuminated
Feb 6
Waning Crescent
Feb 9
New
Feb 17
First Quarter
Feb 25
Full
Mar 4
Last Quarter

Hourly Weather History & Observations

Time (HAST) Temp. Windchill Dew Point Humidity Pressure Visibility Wind Dir Wind Speed Gust Speed Precip Events Conditions
12:16 AM 37.4 °F 25.9 °F 33.8 °F 87% 29.04 in 5.0 mi East 25.3 mph 36.8 mph N/A   Overcast
12:36 AM 37.4 °F 25.0 °F 33.8 °F 87% 29.01 in 8.0 mi East 29.9 mph 35.7 mph N/A   Overcast
12:56 AM 37.4 °F 25.9 °F 33.8 °F 87% 28.99 in 7.0 mi East 25.3 mph 33.4 mph N/A   Overcast
1:16 AM 37.4 °F 26.1 °F 33.8 °F 87% 28.97 in 4.0 mi East 24.2 mph 40.3 mph N/A   Overcast
1:36 AM 37.4 °F 25.9 °F 35.6 °F 93% 28.95 in 5.0 mi ESE 25.3 mph 32.2 mph N/A   Overcast
1:56 AM 39.2 °F 27.8 °F 35.6 °F 87% 28.91 in 3.0 mi SE 27.6 mph 40.3 mph N/A   Overcast
2:16 AM 39.2 °F 26.6 °F 37.4 °F 93% 28.90 in 2.5 mi SE 34.5 mph 41.4 mph N/A   Overcast
2:36 AM 39.2 °F 29.0 °F 37.4 °F 93% 28.91 in 4.0 mi SSE 21.9 mph 35.7 mph N/A   Overcast
2:56 AM 41.0 °F 31.1 °F 37.4 °F 87% 28.91 in 7.0 mi SSE 23.0 mph 43.7 mph N/A   Overcast
3:16 AM 41.0 °F 30.2 °F 35.6 °F 81% 28.91 in 8.0 mi SSE 27.6 mph 35.7 mph N/A   Overcast
3:36 AM 39.2 °F 29.6 °F 35.6 °F 87% 28.92 in 5.0 mi South 19.6 mph 29.9 mph N/A   Overcast
3:56 AM 37.4 °F 26.9 °F 33.8 °F 87% 28.92 in 5.0 mi SSW 20.7 mph 25.3 mph N/A   Overcast
4:16 AM 37.4 °F 27.5 °F 30.2 °F 75% 28.92 in 10.0 mi SSW 18.4 mph 28.8 mph N/A   Scattered Clouds
4:36 AM 37.4 °F 29.3 °F 30.2 °F 75% 28.93 in 10.0 mi SSW 12.7 mph 24.2 mph N/A   Clear
4:56 AM 37.4 °F 32.8 °F 30.2 °F 75% 28.95 in 10.0 mi SSW 5.8 mph - N/A   Scattered Clouds
5:16 AM 37.4 °F 29.8 °F 32.0 °F 81% 28.95 in 10.0 mi South 11.5 mph 17.3 mph N/A   Overcast
5:36 AM 37.4 °F 29.3 °F 32.0 °F 81% 28.95 in 10.0 mi South 12.7 mph - N/A   Overcast
5:56 AM 37.4 °F 27.8 °F 32.0 °F 81% 28.94 in 10.0 mi SSE 17.3 mph 23.0 mph N/A   Overcast
6:16 AM 37.4 °F 27.5 °F 32.0 °F 81% 28.94 in 10.0 mi SSE 18.4 mph 24.2 mph N/A   Mostly Cloudy
6:36 AM 37.4 °F 28.9 °F 33.8 °F 87% 28.94 in 10.0 mi SSE 13.8 mph 24.2 mph N/A   Mostly Cloudy
6:56 AM 37.4 °F 27.8 °F 32.0 °F 81% 28.94 in 10.0 mi SSE 17.3 mph 24.2 mph N/A   Mostly Cloudy
7:16 AM 37.4 °F 27.5 °F 32.0 °F 81% 28.94 in 8.0 mi SSE 18.4 mph 26.5 mph N/A   Overcast
7:36 AM 39.2 °F 30.8 °F 32.0 °F 75% 28.94 in 8.0 mi SSE 15.0 mph 24.2 mph N/A   Overcast
7:56 AM 37.4 °F 27.5 °F 33.8 °F 87% 28.94 in 7.0 mi SSE 18.4 mph 29.9 mph N/A   Overcast
8:16 AM 39.2 °F 28.3 °F 33.8 °F 81% 28.93 in 7.0 mi SSE 25.3 mph 36.8 mph N/A   Overcast
8:36 AM 39.2 °F 28.5 °F 30.2 °F 70% 28.94 in 8.0 mi South 24.2 mph 28.8 mph N/A   Unknown
8:56 AM 35.6 °F 25.2 °F 30.2 °F 81% 28.95 in 6.0 mi South 18.4 mph 26.5 mph N/A   Overcast
9:16 AM 35.6 °F 27.1 °F 30.2 °F 81% 28.95 in 10.0 mi South 12.7 mph - N/A   Mostly Cloudy
9:36 AM 35.6 °F 27.1 °F 30.2 °F 81% 28.95 in 10.0 mi SSE 12.7 mph 17.3 mph N/A   Overcast
9:56 AM 37.4 °F 28.9 °F 32.0 °F 81% 28.95 in 10.0 mi SSE 13.8 mph 23.0 mph N/A   Overcast
10:16 AM 37.4 °F 27.2 °F 30.2 °F 75% 28.96 in 10.0 mi SSE 19.6 mph 23.0 mph N/A   Mostly Cloudy
10:36 AM 37.4 °F 26.9 °F 30.2 °F 75% 28.95 in 10.0 mi SSE 20.7 mph 26.5 mph N/A   Scattered Clouds
10:56 AM 37.4 °F 28.2 °F 30.2 °F 75% 28.95 in 10.0 mi SSE 16.1 mph 27.6 mph N/A   Mostly Cloudy
11:16 AM 37.4 °F 28.2 °F 30.2 °F 75% 28.95 in 10.0 mi SSE 16.1 mph 24.2 mph N/A   Overcast
11:36 AM 37.4 °F 29.8 °F 30.2 °F 75% 28.95 in 10.0 mi SE 11.5 mph 23.0 mph N/A   Overcast
11:56 AM 37.4 °F 26.1 °F 30.2 °F 75% 28.94 in 8.0 mi SSE 24.2 mph 29.9 mph N/A   Mostly Cloudy
12:16 PM 37.4 °F 27.5 °F 30.2 °F 75% 28.93 in 10.0 mi SSE 18.4 mph 32.2 mph N/A   Mostly Cloudy
12:36 PM 37.4 °F 26.6 °F 30.2 °F 75% 28.93 in 10.0 mi SSE 21.9 mph 32.2 mph N/A   Overcast
12:56 PM 37.4 °F 26.9 °F 32.0 °F 81% 28.93 in 9.0 mi SSE 20.7 mph 32.2 mph N/A   Overcast
1:16 PM 39.2 °F 29.0 °F 30.2 °F 70% 28.93 in 10.0 mi SSE 21.9 mph 28.8 mph N/A   Overcast
1:36 PM 39.2 °F 31.2 °F 32.0 °F 75% 28.92 in 9.0 mi SSE 13.8 mph 31.1 mph N/A   Overcast
1:56 PM 39.2 °F 29.3 °F 30.2 °F 70% 28.92 in 10.0 mi South 20.7 mph 28.8 mph N/A   Overcast
2:16 PM 39.2 °F 32.5 °F 32.0 °F 75% 28.91 in 6.0 mi South 10.4 mph 24.2 mph N/A   Overcast
2:36 PM 37.4 °F 26.4 °F 32.0 °F 81% 28.91 in 10.0 mi South 23.0 mph 32.2 mph N/A   Mostly Cloudy
2:56 PM 39.2 °F 29.6 °F 32.0 °F 75% 28.90 in 9.0 mi South 19.6 mph 31.1 mph N/A   Mostly Cloudy
3:16 PM 39.2 °F 29.0 °F 30.2 °F 70% 28.90 in 10.0 mi South 21.9 mph 33.4 mph N/A   Overcast
3:36 PM 39.2 °F 29.0 °F 30.2 °F 70% 28.89 in 10.0 mi SSE 21.9 mph 26.5 mph N/A   Overcast
3:56 PM 39.2 °F 29.3 °F 30.2 °F 70% 28.89 in 10.0 mi SSE 20.7 mph 29.9 mph N/A   Overcast
4:16 PM 39.2 °F 29.3 °F 32.0 °F 75% 28.89 in 10.0 mi South 20.7 mph 25.3 mph N/A   Overcast
4:36 PM 39.2 °F 30.2 °F 32.0 °F 75% 28.90 in 10.0 mi South 17.3 mph 24.2 mph N/A   Overcast
4:56 PM 39.2 °F 30.5 °F 30.2 °F 70% 28.89 in 10.0 mi SSE 16.1 mph 24.2 mph N/A   Overcast
5:16 PM 39.2 °F 30.5 °F 30.2 °F 70% 28.89 in 10.0 mi South 16.1 mph 26.5 mph N/A   Overcast
5:36 PM 37.4 °F 28.5 °F 30.2 °F 75% 28.89 in 10.0 mi SSE 15.0 mph 24.2 mph N/A   Overcast
5:56 PM 37.4 °F 28.5 °F 30.2 °F 75% 28.88 in 10.0 mi SSE 15.0 mph 24.2 mph N/A   Overcast
6:16 PM 35.6 °F 25.9 °F 30.2 °F 81% 28.88 in 10.0 mi SSE 16.1 mph 23.0 mph N/A   Mostly Cloudy
6:36 PM 37.4 °F 28.9 °F 30.2 °F 75% 28.88 in 10.0 mi SSE 13.8 mph 18.4 mph N/A   Overcast
6:56 PM 37.4 °F 27.5 °F 30.2 °F 75% 28.89 in 5.0 mi SSE 18.4 mph 29.9 mph N/A   Overcast
7:16 PM 35.6 °F 25.2 °F 30.2 °F 81% 28.88 in 10.0 mi SSE 18.4 mph 23.0 mph N/A   Mostly Cloudy
7:36 PM 35.6 °F 25.9 °F 32.0 °F 87% 28.88 in 10.0 mi SSE 16.1 mph 21.9 mph N/A   Overcast
7:56 PM 37.4 °F 26.9 °F 30.2 °F 75% 28.88 in 10.0 mi South 20.7 mph 25.3 mph N/A   Overcast
8:16 PM 37.4 °F 27.5 °F 30.2 °F 75% 28.88 in 10.0 mi SSE 18.4 mph 21.9 mph N/A   Mostly Cloudy
8:36 PM 37.4 °F 27.2 °F 30.2 °F 75% 28.88 in 10.0 mi SSE 19.6 mph 26.5 mph N/A   Mostly Cloudy
8:56 PM 37.4 °F 27.5 °F 30.2 °F 75% 28.87 in 10.0 mi SSE 18.4 mph 23.0 mph N/A   Overcast
9:16 PM 37.4 °F 28.2 °F 30.2 °F 75% 28.87 in 10.0 mi SSE 16.1 mph 23.0 mph N/A   Mostly Cloudy
9:36 PM 37.4 °F 30.8 °F 30.2 °F 75% 28.87 in 10.0 mi SSE 9.2 mph 19.6 mph N/A   Overcast
9:56 PM 37.4 °F 28.2 °F 30.2 °F 75% 28.86 in 10.0 mi SE 16.1 mph 20.7 mph N/A   Overcast
10:36 PM 35.6 °F 24.5 °F 30.2 °F 81% 28.86 in 10.0 mi SSE 20.7 mph 34.5 mph N/A   Overcast
10:56 PM 35.6 °F 26.6 °F 32.0 °F 87% 28.86 in 10.0 mi SE 13.8 mph - N/A   Overcast
11:16 PM 37.4 °F 27.2 °F 30.2 °F 75% 28.85 in 10.0 mi SE 19.6 mph 28.8 mph N/A   Mostly Cloudy
11:36 PM 37.4 °F 28.5 °F 30.2 °F 75% 28.84 in 10.0 mi SE 15.0 mph 25.3 mph N/A   Mostly Cloudy
11:56 PM 37.4 °F 28.9 °F 30.2 °F 75% 28.84 in 10.0 mi SSE 13.8 mph 28.8 mph N/A   Overcast